sensor_id;sensor_type;location;lat;lon;timestamp;pressure;altitude;pressure_sealevel;temperature;humidity
69221;BME280;56331;51.992;20.910;2023-03-01T00:00:40;101509.27;;;22.35;29.02
69221;BME280;56331;51.992;20.910;2023-03-01T00:03:08;101509.00;;;22.34;29.02
69221;BME280;56331;51.992;20.910;2023-03-01T00:05:35;101507.61;;;22.34;29.05
69221;BME280;56331;51.992;20.910;2023-03-01T00:08:01;101510.15;;;22.33;28.99
69221;BME280;56331;51.992;20.910;2023-03-01T00:10:28;101515.70;;;22.33;29.02
69221;BME280;56331;51.992;20.910;2023-03-01T00:12:54;101521.25;;;22.33;29.07
69221;BME280;56331;51.992;20.910;2023-03-01T00:15:22;101524.60;;;22.33;28.92
69221;BME280;56331;51.992;20.910;2023-03-01T00:17:49;101532.69;;;22.32;28.86
69221;BME280;56331;51.992;20.910;2023-03-01T00:20:15;101533.50;;;22.32;28.88
69221;BME280;56331;51.992;20.910;2023-03-01T00:22:47;101528.25;;;22.31;28.84
69221;BME280;56331;51.992;20.910;2023-03-01T00:25:11;101519.92;;;22.31;28.94
69221;BME280;56331;51.992;20.910;2023-03-01T00:27:37;101512.98;;;22.31;28.90
69221;BME280;56331;51.992;20.910;2023-03-01T00:30:05;101512.17;;;22.30;28.81
69221;BME280;56331;51.992;20.910;2023-03-01T00:32:32;101508.59;;;22.30;28.87
69221;BME280;56331;51.992;20.910;2023-03-01T00:34:58;101503.84;;;22.30;28.78
69221;BME280;56331;51.992;20.910;2023-03-01T00:37:25;101503.03;;;22.30;28.74
69221;BME280;56331;51.992;20.910;2023-03-01T00:39:51;101502.22;;;22.29;28.72
69221;BME280;56331;51.992;20.910;2023-03-01T00:42:18;101496.67;;;22.29;28.75
69221;BME280;56331;51.992;20.910;2023-03-01T00:44:45;101501.37;;;22.28;28.68
69221;BME280;56331;51.992;20.910;2023-03-01T00:47:11;101498.59;;;22.28;28.69
69221;BME280;56331;51.992;20.910;2023-03-01T00:49:38;101492.23;;;22.28;28.78
69221;BME280;56331;51.992;20.910;2023-03-01T00:52:05;101492.23;;;22.28;28.70
69221;BME280;56331;51.992;20.910;2023-03-01T00:54:31;101481.70;;;22.27;28.70
69221;BME280;56331;51.992;20.910;2023-03-01T00:56:58;101484.48;;;22.27;28.63
69221;BME280;56331;51.992;20.910;2023-03-01T00:59:24;101481.46;;;22.26;28.59
69221;BME280;56331;51.992;20.910;2023-03-01T01:01:53;101477.30;;;22.26;28.55
69221;BME280;56331;51.992;20.910;2023-03-01T01:04:22;101474.25;;;22.25;28.55
69221;BME280;56331;51.992;20.910;2023-03-01T01:06:48;101467.89;;;22.25;28.46
69221;BME280;56331;51.992;20.910;2023-03-01T01:09:16;101467.08;;;22.24;28.49
69221;BME280;56331;51.992;20.910;2023-03-01T01:11:45;101463.72;;;22.25;28.46
69221;BME280;56331;51.992;20.910;2023-03-01T01:14:19;101455.16;;;22.24;28.43
69221;BME280;56331;51.992;20.910;2023-03-01T01:16:47;101452.38;;;22.24;28.43
69221;BME280;56331;51.992;20.910;2023-03-01T01:19:14;101458.48;;;22.23;28.31
69221;BME280;56331;51.992;20.910;2023-03-01T01:21:41;101459.86;;;22.23;28.43
69221;BME280;56331;51.992;20.910;2023-03-01T01:24:09;101458.75;;;22.24;28.44
69221;BME280;56331;51.992;20.910;2023-03-01T01:26:36;101466.80;;;22.23;28.39
69221;BME280;56331;51.992;20.910;2023-03-01T01:29:03;101468.19;;;22.23;28.34
69221;BME280;56331;51.992;20.910;2023-03-01T01:31:31;101456.84;;;22.22;28.31
69221;BME280;56331;51.992;20.910;2023-03-01T01:34:00;101464.60;;;22.23;28.22
69221;BME280;56331;51.992;20.910;2023-03-01T01:36:27;101456.03;;;22.22;28.29
69221;BME280;56331;51.992;20.910;2023-03-01T01:38:54;101447.44;;;22.21;28.25
69221;BME280;56331;51.992;20.910;2023-03-01T01:41:21;101443.85;;;22.20;28.27
69221;BME280;56331;51.992;20.910;2023-03-01T01:44:10;101436.91;;;22.20;28.19
69221;BME280;56331;51.992;20.910;2023-03-01T01:46:29;101441.34;;;22.21;28.13
69221;BME280;56331;51.992;20.910;2023-03-01T01:49:05;101435.86;;;22.19;28.04
69221;BME280;56331;51.992;20.910;2023-03-01T01:51:40;101435.28;;;22.19;28.19
69221;BME280;56331;51.992;20.910;2023-03-01T01:54:16;101428.92;;;22.19;28.09
69221;BME280;56331;51.992;20.910;2023-03-01T01:56:44;101423.07;;;22.18;28.03
69221;BME280;56331;51.992;20.910;2023-03-01T01:59:13;101425.27;;;22.18;28.03
69221;BME280;56331;51.992;20.910;2023-03-01T02:01:40;101416.47;;;22.16;28.06
69221;BME280;56331;51.992;20.910;2023-03-01T02:04:07;101420.05;;;22.17;28.10
69221;BME280;56331;51.992;20.910;2023-03-01T02:06:47;101422.02;;;22.16;28.08
69221;BME280;56331;51.992;20.910;2023-03-01T02:09:15;101418.39;;;22.16;28.05
69221;BME280;56331;51.992;20.910;2023-03-01T02:11:43;101413.42;;;22.15;28.02
69221;BME280;56331;51.992;20.910;2023-03-01T02:14:11;101410.07;;;22.16;28.10
69221;BME280;56331;51.992;20.910;2023-03-01T02:16:37;101404.86;;;22.14;28.07
69221;BME280;56331;51.992;20.910;2023-03-01T02:19:04;101407.63;;;22.14;28.03
69221;BME280;56331;51.992;20.910;2023-03-01T02:26:55;101406.81;;;22.14;27.96
69221;BME280;56331;51.992;20.910;2023-03-01T02:29:23;101405.16;;;22.13;27.99
69221;BME280;56331;51.992;20.910;2023-03-01T02:31:51;101405.43;;;22.14;27.98
69221;BME280;56331;51.992;20.910;2023-03-01T02:34:25;101416.53;;;22.14;27.94
69221;BME280;56331;51.992;20.910;2023-03-01T02:37:07;101412.09;;;22.13;27.98
69221;BME280;56331;51.992;20.910;2023-03-01T02:39:42;101420.94;;;22.15;27.98
69221;BME280;56331;51.992;20.910;2023-03-01T02:42:14;101413.18;;;22.14;27.98
69221;BME280;56331;51.992;20.910;2023-03-01T02:44:42;101417.92;;;22.14;27.98
69221;BME280;56331;51.992;20.910;2023-03-01T02:47:08;101411.28;;;22.12;27.97
69221;BME280;56331;51.992;20.910;2023-03-01T02:49:36;101407.70;;;22.12;27.97
69221;BME280;56331;51.992;20.910;2023-03-01T02:52:12;101407.94;;;22.13;28.00
69221;BME280;56331;51.992;20.910;2023-03-01T02:54:51;101402.72;;;22.11;27.99
69221;BME280;56331;51.992;20.910;2023-03-01T02:57:19;101405.73;;;22.12;27.97
69221;BME280;56331;51.992;20.910;2023-03-01T02:59:48;101401.58;;;22.12;27.97
69221;BME280;56331;51.992;20.910;2023-03-01T03:04:50;101397.41;;;22.12;27.70
69221;BME280;56331;51.992;20.910;2023-03-01T03:07:17;101391.86;;;22.12;27.57
69221;BME280;56331;51.992;20.910;2023-03-01T03:09:43;101386.00;;;22.14;27.42
69221;BME280;56331;51.992;20.910;2023-03-01T03:12:10;101390.70;;;22.13;27.23
69221;BME280;56331;51.992;20.910;2023-03-01T03:14:37;101389.32;;;22.13;27.10
69221;BME280;56331;51.992;20.910;2023-03-01T03:17:03;101388.52;;;22.13;26.93
69221;BME280;56331;51.992;20.910;2023-03-01T03:19:31;101385.73;;;22.13;26.87
69221;BME280;56331;51.992;20.910;2023-03-01T03:24:41;101386.00;;;22.14;26.60
69221;BME280;56331;51.992;20.910;2023-03-01T03:27:07;101389.08;;;22.12;26.47
69221;BME280;56331;51.992;20.910;2023-03-01T03:29:34;101384.62;;;22.14;26.33
69221;BME280;56331;51.992;20.910;2023-03-01T03:32:01;101381.58;;;22.13;26.27
69221;BME280;56331;51.992;20.910;2023-03-01T03:34:27;101380.45;;;22.14;26.20
69221;BME280;56331;51.992;20.910;2023-03-01T03:36:55;101381.58;;;22.13;26.11
69221;BME280;56331;51.992;20.910;2023-03-01T03:39:28;101372.67;;;22.13;26.10
69221;BME280;56331;51.992;20.910;2023-03-01T03:41:59;101376.59;;;22.12;26.02
69221;BME280;56331;51.992;20.910;2023-03-01T03:44:25;101375.78;;;22.12;25.91
69221;BME280;56331;51.992;20.910;2023-03-01T03:46:52;101367.45;;;22.12;25.83
69221;BME280;56331;51.992;20.910;2023-03-01T03:49:18;101358.86;;;22.11;25.82
69221;BME280;56331;51.992;20.910;2023-03-01T03:51:45;101356.66;;;22.10;25.77
69221;BME280;56331;51.992;20.910;2023-03-01T03:54:12;101357.48;;;22.11;25.70
69221;BME280;56331;51.992;20.910;2023-03-01T03:56:38;101347.77;;;22.11;25.56
69221;BME280;56331;51.992;20.910;2023-03-01T03:59:14;101343.94;;;22.09;25.54
69221;BME280;56331;51.992;20.910;2023-03-01T04:01:40;101347.53;;;22.10;25.56
69221;BME280;56331;51.992;20.910;2023-03-01T04:04:07;101347.29;;;22.09;25.59
69221;BME280;56331;51.992;20.910;2023-03-01T04:06:42;101346.14;;;22.10;25.94
69221;BME280;56331;51.992;20.910;2023-03-01T04:09:09;101333.14;;;22.07;26.04
69221;BME280;56331;51.992;20.910;2023-03-01T04:11:45;101335.34;;;22.08;26.09
69221;BME280;56331;51.992;20.910;2023-03-01T04:14:11;101337.88;;;22.07;26.23
69221;BME280;56331;51.992;20.910;2023-03-01T04:16:38;101330.95;;;22.07;26.22
69221;BME280;56331;51.992;20.910;2023-03-01T04:19:04;101337.64;;;22.06;26.26
69221;BME280;56331;51.992;20.910;2023-03-01T04:21:32;101334.05;;;22.05;26.30
69221;BME280;56331;51.992;20.910;2023-03-01T04:23:59;101334.05;;;22.05;26.34
69221;BME280;56331;51.992;20.910;2023-03-01T04:26:25;101328.81;;;22.04;26.27
69221;BME280;56331;51.992;20.910;2023-03-01T04:28:53;101328.81;;;22.04;26.31
69221;BME280;56331;51.992;20.910;2023-03-01T04:31:20;101333.55;;;22.03;26.29
69221;BME280;56331;51.992;20.910;2023-03-01T04:33:55;101328.58;;;22.03;26.39
69221;BME280;56331;51.992;20.910;2023-03-01T04:36:24;101331.34;;;22.03;26.26
69221;BME280;56331;51.992;20.910;2023-03-01T04:38:51;101332.47;;;22.02;26.36
69221;BME280;56331;51.992;20.910;2023-03-01T04:41:20;101333.85;;;22.02;26.36
69221;BME280;56331;51.992;20.910;2023-03-01T04:43:47;101335.58;;;22.00;26.32
69221;BME280;56331;51.992;20.910;2023-03-01T04:46:16;101340.28;;;22.00;26.36
69221;BME280;56331;51.992;20.910;2023-03-01T04:48:45;101341.13;;;22.00;26.32
69221;BME280;56331;51.992;20.910;2023-03-01T04:51:13;101337.84;;;21.98;26.38
69221;BME280;56331;51.992;20.910;2023-03-01T04:53:40;101344.78;;;21.98;26.47
69221;BME280;56331;51.992;20.910;2023-03-01T04:56:07;101342.58;;;21.98;26.44
69221;BME280;56331;51.992;20.910;2023-03-01T04:58:33;101346.17;;;21.98;26.38
69221;BME280;56331;51.992;20.910;2023-03-01T05:01:00;101337.03;;;21.98;26.45
69221;BME280;56331;51.992;20.910;2023-03-01T05:03:26;101332.02;;;21.97;26.54
69221;BME280;56331;51.992;20.910;2023-03-01T05:05:54;101330.91;;;21.98;26.57
69221;BME280;56331;51.992;20.910;2023-03-01T05:08:22;101327.56;;;21.99;26.60
69221;BME280;56331;51.992;20.910;2023-03-01T05:10:51;101319.47;;;22.00;26.58
69221;BME280;56331;51.992;20.910;2023-03-01T05:13:21;101315.65;;;21.98;26.67
69221;BME280;56331;51.992;20.910;2023-03-01T05:15:56;101310.98;;;21.96;26.62
69221;BME280;56331;51.992;20.910;2023-03-01T05:18:24;101310.41;;;21.97;26.59
69221;BME280;56331;51.992;20.910;2023-03-01T05:20:55;101312.37;;;21.96;26.62
69221;BME280;56331;51.992;20.910;2023-03-01T05:23:24;101304.86;;;21.97;26.66
69221;BME280;56331;51.992;20.910;2023-03-01T05:25:51;101312.67;;;21.95;26.70
69221;BME280;56331;51.992;20.910;2023-03-01T05:28:19;101309.36;;;21.95;26.77
69221;BME280;56331;51.992;20.910;2023-03-01T05:30:46;101311.28;;;21.95;26.75
69221;BME280;56331;51.992;20.910;2023-03-01T05:33:13;101308.51;;;21.95;26.72
69221;BME280;56331;51.992;20.910;2023-03-01T05:35:40;101308.27;;;21.94;26.74
69221;BME280;56331;51.992;20.910;2023-03-01T05:38:09;101321.91;;;21.93;26.82
69221;BME280;56331;51.992;20.910;2023-03-01T05:40:37;101317.75;;;21.93;26.81
69221;BME280;56331;51.992;20.910;2023-03-01T05:43:04;101320.25;;;21.92;26.82
69221;BME280;56331;51.992;20.910;2023-03-01T05:45:32;101316.90;;;21.92;26.87
69221;BME280;56331;51.992;20.910;2023-03-01T05:47:58;101322.78;;;21.91;26.96
69221;BME280;56331;51.992;20.910;2023-03-01T05:50:29;101326.95;;;21.91;26.98
69221;BME280;56331;51.992;20.910;2023-03-01T05:53:03;101331.11;;;21.91;26.99
69221;BME280;56331;51.992;20.910;2023-03-01T05:55:34;101335.84;;;21.90;27.01
69221;BME280;56331;51.992;20.910;2023-03-01T05:58:03;101341.13;;;21.89;27.01
69221;BME280;56331;51.992;20.910;2023-03-01T06:00:35;101341.13;;;21.89;27.19
69221;BME280;56331;51.992;20.910;2023-03-01T06:03:01;101342.27;;;21.88;27.22
69221;BME280;56331;51.992;20.910;2023-03-01T06:05:44;101350.02;;;21.89;27.16
69221;BME280;56331;51.992;20.910;2023-03-01T06:08:14;101353.61;;;21.89;27.00
69221;BME280;56331;51.992;20.910;2023-03-01T06:10:40;101355.56;;;21.89;26.94
69221;BME280;56331;51.992;20.910;2023-03-01T06:13:07;101352.80;;;21.89;26.95
69221;BME280;56331;51.992;20.910;2023-03-01T06:15:34;101347.25;;;21.89;26.90
69221;BME280;56331;51.992;20.910;2023-03-01T06:18:00;101351.41;;;21.89;26.81
69221;BME280;56331;51.992;20.910;2023-03-01T06:20:31;101355.80;;;21.90;26.67
69221;BME280;56331;51.992;20.910;2023-03-01T06:22:56;101361.11;;;21.89;26.68
69221;BME280;56331;51.992;20.910;2023-03-01T06:25:28;101351.98;;;21.88;26.66
69221;BME280;56331;51.992;20.910;2023-03-01T06:27:52;101359.48;;;21.88;26.67
69221;BME280;56331;51.992;20.910;2023-03-01T06:30:20;101356.72;;;21.88;26.73
69221;BME280;56331;51.992;20.910;2023-03-01T06:32:47;101354.75;;;21.88;26.76
69221;BME280;56331;51.992;20.910;2023-03-01T06:35:15;101353.09;;;21.87;26.81
69221;BME280;56331;51.992;20.910;2023-03-01T06:37:45;101355.87;;;21.87;26.93
69221;BME280;56331;51.992;20.910;2023-03-01T06:40:13;101352.55;;;21.88;27.17
69221;BME280;56331;51.992;20.910;2023-03-01T06:42:42;101356.72;;;21.88;27.28
69221;BME280;56331;51.992;20.910;2023-03-01T06:45:10;101350.59;;;21.88;27.38
69221;BME280;56331;51.992;20.910;2023-03-01T06:47:37;101354.75;;;21.88;27.46
69221;BME280;56331;51.992;20.910;2023-03-01T06:50:04;101346.43;;;21.88;27.52
69221;BME280;56331;51.992;20.910;2023-03-01T06:52:31;101348.63;;;21.89;27.59
69221;BME280;56331;51.992;20.910;2023-03-01T06:54:58;101345.05;;;21.88;27.62
69221;BME280;56331;51.992;20.910;2023-03-01T06:57:24;101337.53;;;21.89;27.71
69221;BME280;56331;51.992;20.910;2023-03-01T06:59:51;101344.47;;;21.89;27.71
69221;BME280;56331;51.992;20.910;2023-03-01T07:02:18;101338.92;;;21.89;27.72
69221;BME280;56331;51.992;20.910;2023-03-01T07:04:44;101336.72;;;21.88;27.80
69221;BME280;56331;51.992;20.910;2023-03-01T07:07:10;101343.66;;;21.88;27.93
69221;BME280;56331;51.992;20.910;2023-03-01T07:09:37;101347.81;;;21.88;28.03
69221;BME280;56331;51.992;20.910;2023-03-01T07:12:04;101343.66;;;21.88;27.99
69221;BME280;56331;51.992;20.910;2023-03-01T07:14:30;101347.00;;;21.88;27.92
69221;BME280;56331;51.992;20.910;2023-03-01T07:16:57;101348.39;;;21.88;27.87
69221;BME280;56331;51.992;20.910;2023-03-01T07:19:23;101342.84;;;21.88;27.88
69221;BME280;56331;51.992;20.910;2023-03-01T07:21:50;101347.00;;;21.88;27.79
69221;BME280;56331;51.992;20.910;2023-03-01T07:24:17;101341.19;;;21.87;27.74
69221;BME280;56331;51.992;20.910;2023-03-01T07:26:43;101339.23;;;21.87;27.71
69221;BME280;56331;51.992;20.910;2023-03-01T07:29:15;101344.77;;;21.87;27.69
69221;BME280;56331;51.992;20.910;2023-03-01T07:31:42;101337.84;;;21.87;27.77
69221;BME280;56331;51.992;20.910;2023-03-01T07:34:08;101343.39;;;21.87;27.81
69221;BME280;56331;51.992;20.910;2023-03-01T07:36:35;101338.41;;;21.87;27.79
69221;BME280;56331;51.992;20.910;2023-03-01T07:39:01;101337.02;;;21.87;27.91
69221;BME280;56331;51.992;20.910;2023-03-01T07:41:29;101337.02;;;21.87;28.06
69221;BME280;56331;51.992;20.910;2023-03-01T07:43:56;101333.44;;;21.86;28.22
69221;BME280;56331;51.992;20.910;2023-03-01T07:46:24;101335.64;;;21.87;28.32
69221;BME280;56331;51.992;20.910;2023-03-01T07:48:51;101331.48;;;21.87;28.80
69221;BME280;56331;51.992;20.910;2023-03-01T07:51:17;101330.36;;;21.88;28.71
69221;BME280;56331;51.992;20.910;2023-03-01T07:53:46;101326.67;;;21.90;28.55
69221;BME280;56331;51.992;20.910;2023-03-01T07:56:14;101329.72;;;21.91;28.52
69221;BME280;56331;51.992;20.910;2023-03-01T07:58:42;101324.41;;;21.92;28.67
69221;BME280;56331;51.992;20.910;2023-03-01T08:01:15;101316.59;;;21.94;28.73
69221;BME280;56331;51.992;20.910;2023-03-01T08:03:42;101315.21;;;21.94;28.69
69221;BME280;56331;51.992;20.910;2023-03-01T08:06:11;101310.17;;;21.96;28.68
69221;BME280;56331;51.992;20.910;2023-03-01T08:08:38;101311.80;;;21.97;29.44
69221;BME280;56331;51.992;20.910;2023-03-01T08:11:05;101317.84;;;21.99;29.67
69221;BME280;56331;51.992;20.910;2023-03-01T08:13:33;101312.81;;;22.01;29.36
69221;BME280;56331;51.992;20.910;2023-03-01T08:16:03;101317.14;;;22.04;29.22
69221;BME280;56331;51.992;20.910;2023-03-01T08:18:30;101316.50;;;22.07;29.15
69221;BME280;56331;51.992;20.910;2023-03-01T08:21:03;101312.77;;;22.12;29.26
69221;BME280;56331;51.992;20.910;2023-03-01T08:23:29;101313.52;;;22.15;29.18
69221;BME280;56331;51.992;20.910;2023-03-01T08:26:06;101318.95;;;22.20;29.10
69221;BME280;56331;51.992;20.910;2023-03-01T08:28:33;101322.47;;;22.23;28.91
69221;BME280;56331;51.992;20.910;2023-03-01T08:30:59;101320.70;;;22.27;28.76
69221;BME280;56331;51.992;20.910;2023-03-01T08:33:26;101318.67;;;22.31;28.63
69221;BME280;56331;51.992;20.910;2023-03-01T08:36:05;101316.64;;;22.34;29.31
69221;BME280;56331;51.992;20.910;2023-03-01T08:38:34;101322.70;;;22.36;29.85
69221;BME280;56331;51.992;20.910;2023-03-01T08:41:03;101326.21;;;22.39;30.10
69221;BME280;56331;51.992;20.910;2023-03-01T08:43:32;101323.12;;;22.40;30.56
69221;BME280;56331;51.992;20.910;2023-03-01T08:45:58;101326.64;;;22.43;30.97
69221;BME280;56331;51.992;20.910;2023-03-01T08:48:25;101327.15;;;22.45;31.13
69221;BME280;56331;51.992;20.910;2023-03-01T08:50:55;101328.13;;;22.49;31.17
69221;BME280;56331;51.992;20.910;2023-03-01T08:53:21;101328.05;;;22.52;31.06
69221;BME280;56331;51.992;20.910;2023-03-01T08:55:48;101330.75;;;22.55;31.13
69221;BME280;56331;51.992;20.910;2023-03-01T08:58:14;101325.70;;;22.57;31.30
69221;BME280;56331;51.992;20.910;2023-03-01T09:00:41;101326.44;;;22.60;31.46
69221;BME280;56331;51.992;20.910;2023-03-01T09:03:07;101318.61;;;22.62;31.61
69221;BME280;56331;51.992;20.910;2023-03-01T09:05:34;101320.50;;;22.64;32.33
69221;BME280;56331;51.992;20.910;2023-03-01T09:08:02;101321.81;;;22.66;31.81
69221;BME280;56331;51.992;20.910;2023-03-01T09:10:28;101315.92;;;22.68;31.62
69221;BME280;56331;51.992;20.910;2023-03-01T09:12:55;101318.63;;;22.70;31.59
69221;BME280;56331;51.992;20.910;2023-03-01T09:15:27;101312.76;;;22.72;31.61
69221;BME280;56331;51.992;20.910;2023-03-01T09:17:51;101312.11;;;22.75;31.79
69221;BME280;56331;51.992;20.910;2023-03-01T09:20:18;101317.09;;;22.76;31.64
69221;BME280;56331;51.992;20.910;2023-03-01T09:22:45;101320.94;;;22.77;31.61
69221;BME280;56331;51.992;20.910;2023-03-01T09:25:11;101329.51;;;22.78;31.65
69221;BME280;56331;51.992;20.910;2023-03-01T09:27:37;101336.95;;;22.80;31.66
69221;BME280;56331;51.992;20.910;2023-03-01T09:30:04;101334.68;;;22.82;31.72
69221;BME280;56331;51.992;20.910;2023-03-01T09:32:31;101337.96;;;22.84;31.74
69221;BME280;56331;51.992;20.910;2023-03-01T09:34:58;101347.34;;;22.86;31.54
69221;BME280;56331;51.992;20.910;2023-03-01T09:37:29;101328.73;;;22.86;31.23
69221;BME280;56331;51.992;20.910;2023-03-01T09:39:55;101324.49;;;22.89;31.21
69221;BME280;56331;51.992;20.910;2023-03-01T09:42:21;101321.14;;;22.89;31.04
69221;BME280;56331;51.992;20.910;2023-03-01T09:47:27;101318.83;;;22.91;30.41
69221;BME280;56331;51.992;20.910;2023-03-01T09:53:07;101315.00;;;22.90;29.64
69221;BME280;56331;51.992;20.910;2023-03-01T10:01:10;101306.02;;;22.93;29.70
69221;BME280;56331;51.992;20.910;2023-03-01T10:03:40;101312.64;;;22.94;29.62
69221;BME280;56331;51.992;20.910;2023-03-01T10:06:21;101310.41;;;22.94;29.44
69221;BME280;56331;51.992;20.910;2023-03-01T10:09:05;101304.55;;;22.96;29.30
69221;BME280;56331;51.992;20.910;2023-03-01T10:11:38;101294.00;;;22.95;29.04
69221;BME280;56331;51.992;20.910;2023-03-01T10:16:58;101285.36;;;22.97;28.83
69221;BME280;56331;51.992;20.910;2023-03-01T10:19:39;101288.40;;;22.98;28.73
69221;BME280;56331;51.992;20.910;2023-03-01T10:22:15;101295.34;;;22.98;28.60
69221;BME280;56331;51.992;20.910;2023-03-01T10:24:43;101293.61;;;22.99;28.51
69221;BME280;56331;51.992;20.910;2023-03-01T10:27:26;101284.16;;;23.00;28.45
69221;BME280;56331;51.992;20.910;2023-03-01T10:32:45;101273.84;;;23.01;28.31
69221;BME280;56331;51.992;20.910;2023-03-01T10:35:27;101255.78;;;23.01;28.64
69221;BME280;56331;51.992;20.910;2023-03-01T10:38:11;101254.31;;;23.03;28.72
69221;BME280;56331;51.992;20.910;2023-03-01T10:40:59;101255.70;;;23.03;28.87
69221;BME280;56331;51.992;20.910;2023-03-01T10:43:25;101248.76;;;23.03;29.04
69221;BME280;56331;51.992;20.910;2023-03-01T10:45:52;101245.40;;;23.04;29.20
69221;BME280;56331;51.992;20.910;2023-03-01T10:48:24;101239.03;;;23.03;29.42
69221;BME280;56331;51.992;20.910;2023-03-01T10:53:34;101237.88;;;23.04;29.72
69221;BME280;56331;51.992;20.910;2023-03-01T10:56:12;101240.92;;;23.05;29.79
69221;BME280;56331;51.992;20.910;2023-03-01T10:58:56;101238.14;;;23.05;29.93
69221;BME280;56331;51.992;20.910;2023-03-01T11:03:55;101239.77;;;23.06;30.18
69221;BME280;56331;51.992;20.910;2023-03-01T11:06:22;101240.02;;;23.07;30.33
69221;BME280;56331;51.992;20.910;2023-03-01T11:08:48;101236.66;;;23.08;30.42
69221;BME280;56331;51.992;20.910;2023-03-01T11:11:31;101236.66;;;23.08;30.66
69221;BME280;56331;51.992;20.910;2023-03-01T11:14:21;101232.15;;;23.09;30.65
69221;BME280;56331;51.992;20.910;2023-03-01T11:19:34;101230.22;;;23.10;30.82
69221;BME280;56331;51.992;20.910;2023-03-01T11:22:10;101237.97;;;23.10;30.90
69221;BME280;56331;51.992;20.910;2023-03-01T11:24:42;101225.47;;;23.10;31.16
69221;BME280;56331;51.992;20.910;2023-03-01T11:27:33;101224.31;;;23.11;31.23
69221;BME280;56331;51.992;20.910;2023-03-01T11:30:22;101218.75;;;23.11;31.31
69221;BME280;56331;51.992;20.910;2023-03-01T11:35:41;101214.50;;;23.14;31.47
69221;BME280;56331;51.992;20.910;2023-03-01T11:38:21;101204.77;;;23.14;31.54
69221;BME280;56331;51.992;20.910;2023-03-01T11:40:52;101206.97;;;23.14;31.63
69221;BME280;56331;51.992;20.910;2023-03-01T11:43:45;101208.94;;;23.14;31.73
69221;BME280;56331;51.992;20.910;2023-03-01T11:46:31;101211.63;;;23.17;31.76
69221;BME280;56331;51.992;20.910;2023-03-01T11:49:03;101200.52;;;23.17;31.73
69221;BME280;56331;51.992;20.910;2023-03-01T11:54:09;101193.33;;;23.15;31.62
69221;BME280;56331;51.992;20.910;2023-03-01T12:02:43;101187.28;;;23.13;31.45
69221;BME280;56331;51.992;20.910;2023-03-01T12:04:36;101200.02;;;23.14;31.50
69221;BME280;56331;51.992;20.910;2023-03-01T12:07:00;101197.73;;;23.17;31.54
69221;BME280;56331;51.992;20.910;2023-03-01T12:09:47;101196.69;;;23.15;31.44
69221;BME280;56331;51.992;20.910;2023-03-01T12:12:28;101204.69;;;23.17;31.38
69221;BME280;56331;51.992;20.910;2023-03-01T12:18:12;101208.19;;;23.20;31.30
69221;BME280;56331;51.992;20.910;2023-03-01T12:22:52;101211.23;;;23.21;31.29
69221;BME280;56331;51.992;20.910;2023-03-01T12:25:21;101200.11;;;23.21;31.16
69221;BME280;56331;51.992;20.910;2023-03-01T12:36:13;101197.33;;;23.21;31.02
69221;BME280;56331;51.992;20.910;2023-03-01T12:38:45;101193.39;;;23.22;31.03
69221;BME280;56331;51.992;20.910;2023-03-01T12:49:24;101195.59;;;23.22;30.58
69221;BME280;56331;51.992;20.910;2023-03-01T12:52:02;101193.63;;;23.23;30.41
69221;BME280;56331;51.992;20.910;2023-03-01T12:54:34;101187.25;;;23.22;30.41
69221;BME280;56331;51.992;20.910;2023-03-01T12:57:22;101187.25;;;23.22;30.44
69221;BME280;56331;51.992;20.910;2023-03-01T13:00:06;101185.55;;;23.24;30.43
69221;BME280;56331;51.992;20.910;2023-03-01T13:02:39;101185.55;;;23.24;30.40
69221;BME280;56331;51.992;20.910;2023-03-01T13:13:20;101179.64;;;23.25;30.62
69221;BME280;56331;51.992;20.910;2023-03-01T13:15:46;101179.91;;;23.26;30.75
69221;BME280;56331;51.992;20.910;2023-03-01T13:20:52;101175.64;;;23.29;30.97
69221;BME280;56331;51.992;20.910;2023-03-01T13:28:49;101175.79;;;23.32;31.44
69221;BME280;56331;51.992;20.910;2023-03-01T13:33:54;101167.36;;;23.35;33.75
69221;BME280;56331;51.992;20.910;2023-03-01T13:39:04;101157.31;;;23.36;32.20
69221;BME280;56331;51.992;20.910;2023-03-01T13:41:49;101159.51;;;23.37;32.20
69221;BME280;56331;51.992;20.910;2023-03-01T13:44:38;101158.93;;;23.37;32.31
69221;BME280;56331;51.992;20.910;2023-03-01T13:55:23;101151.89;;;23.40;32.18
69221;BME280;56331;51.992;20.910;2023-03-01T13:57:53;101149.11;;;23.40;31.99
69221;BME280;56331;51.992;20.910;2023-03-01T14:00:36;101149.69;;;23.40;32.12
69221;BME280;56331;51.992;20.910;2023-03-01T14:03:12;101139.73;;;23.39;32.05
69221;BME280;56331;51.992;20.910;2023-03-01T14:05:43;101146.10;;;23.39;32.06
69221;BME280;56331;51.992;20.910;2023-03-01T14:08:23;101139.14;;;23.39;32.10
69221;BME280;56331;51.992;20.910;2023-03-01T14:21:46;101134.30;;;23.42;31.96
69221;BME280;56331;51.992;20.910;2023-03-01T14:24:21;101137.09;;;23.42;31.77
69221;BME280;56331;51.992;20.910;2023-03-01T14:26:49;101137.67;;;23.42;31.69
69221;BME280;56331;51.992;20.910;2023-03-01T14:29:36;101133.50;;;23.42;31.65
69221;BME280;56331;51.992;20.910;2023-03-01T14:32:19;101133.50;;;23.42;31.60
69221;BME280;56331;51.992;20.910;2023-03-01T14:34:49;101132.11;;;23.42;31.58
69221;BME280;56331;51.992;20.910;2023-03-01T14:37:32;101127.94;;;23.42;31.45
69221;BME280;56331;51.992;20.910;2023-03-01T14:40:01;101122.38;;;23.42;31.31
69221;BME280;56331;51.992;20.910;2023-03-01T14:42:36;101131.53;;;23.42;31.17